Time;durP1;ratioP1;P1;durP2;ratioP2;P2;SDS_P1;SDS_P2;PMS_P1;PMS_P2;Temp;Humidity;BMP_temperature;BMP_pressure;BME280_temperature;BME280_humidity;BME280_pressure;Samples;Min_cycle;Max_cycle;Signal;HPM_P1;HPM_P2
2023/11/30 00:02:01;;;;;;;9.02;4.32;;;;;;;7.66;100.00;98006.06;5014642;28;20124;-91
2023/11/30 00:04:27;;;;;;;15.07;4.72;;;;;;;7.38;100.00;97931.91;5017488;28;20108;-92
2023/11/30 00:06:53;;;;;;;16.75;5.13;;;;;;;7.88;100.00;98022.22;5016187;28;20052;-92
2023/11/30 00:09:19;;;;;;;17.85;6.00;;;;;;;7.36;100.00;97917.84;5014829;28;20038;-93
2023/11/30 00:11:46;;;;;;;15.68;6.32;;;;;;;7.57;100.00;97983.38;5015470;28;20491;-93
2023/11/30 00:14:12;;;;;;;12.35;5.10;;;;;;;7.36;100.00;97957.50;5031940;28;20042;-92
2023/11/30 00:16:38;;;;;;;8.63;4.70;;;;;;;7.43;100.00;97977.59;5012976;28;20042;-92
2023/11/30 00:19:05;;;;;;;20.50;6.63;;;;;;;7.15;100.00;97938.66;5015287;28;20503;-92
2023/11/30 00:21:30;;;;;;;13.73;4.80;;;;;;;8.02;100.00;98083.59;5015443;28;20049;-93
2023/11/30 00:23:56;;;;;;;17.20;5.63;;;;;;;7.76;100.00;98014.59;5011504;28;20042;-90
2023/11/30 00:26:22;;;;;;;14.60;4.75;;;;;;;7.32;100.00;97958.50;5011998;28;20044;-91
2023/11/30 00:28:50;;;;;;;14.63;4.80;;;;;;;7.98;100.00;98052.81;4993512;28;20077;-91
2023/11/30 00:31:15;;;;;;;11.95;4.15;;;;;;;7.51;100.00;97975.59;4992058;28;20106;-91
2023/11/30 00:33:41;;;;;;;9.10;4.53;;;;;;;7.70;100.00;98006.84;4994254;28;20035;-93
2023/11/30 00:36:08;;;;;;;12.27;4.18;;;;;;;7.77;100.00;98000.47;4994993;28;20061;-93
2023/11/30 00:38:34;;;;;;;8.65;3.67;;;;;;;7.53;100.00;97967.63;4996522;28;20037;-92
2023/11/30 00:40:59;;;;;;;9.85;4.32;;;;;;;8.07;100.00;98021.66;4994097;28;20104;-94
2023/11/30 00:43:25;;;;;;;9.63;3.70;;;;;;;8.43;100.00;98088.63;4993381;28;20046;-92
2023/11/30 00:45:53;;;;;;;11.05;5.18;;;;;;;7.79;100.00;97980.13;4991329;28;20045;-91
2023/11/30 00:48:19;;;;;;;13.18;4.68;;;;;;;7.61;100.00;97923.28;4994647;28;20037;-91
2023/11/30 00:50:44;;;;;;;15.02;4.60;;;;;;;8.63;100.00;98096.00;5009678;28;20042;-92
2023/11/30 00:53:10;;;;;;;21.20;4.68;;;;;;;8.17;100.00;98033.75;4994911;28;20038;-93
2023/11/30 00:55:36;;;;;;;11.45;3.97;;;;;;;8.37;100.00;98071.13;4994831;28;20045;-91
2023/11/30 00:58:02;;;;;;;8.45;3.60;;;;;;;8.70;100.00;98105.50;5011723;28;20038;-93
2023/11/30 01:00:28;;;;;;;11.93;3.53;;;;;;;7.44;100.00;97900.00;4994417;28;20049;-92
2023/11/30 01:02:55;;;;;;;11.70;3.03;;;;;;;7.33;100.00;97913.50;4994541;28;20717;-92
2023/11/30 01:05:21;;;;;;;8.52;2.88;;;;;;;8.00;100.00;98027.16;4994763;28;20399;-93
2023/11/30 01:07:47;;;;;;;9.40;3.10;;;;;;;8.09;100.00;98064.88;4994304;28;20124;-92
2023/11/30 01:10:13;;;;;;;12.23;2.97;;;;;;;8.19;100.00;98077.81;4993916;28;20048;-90
2023/11/30 01:12:38;;;;;;;10.10;3.10;;;;;;;8.31;100.00;98084.53;4994241;28;20039;-91
2023/11/30 01:15:05;;;;;;;10.63;2.75;;;;;;;7.48;100.00;97932.50;4991894;28;20088;-93
2023/11/30 01:17:31;;;;;;;6.90;2.55;;;;;;;8.28;100.00;98092.56;4994651;28;20716;-92
2023/11/30 01:19:59;;;;;;;9.80;3.22;;;;;;;8.39;100.00;98077.25;5009591;28;20105;-93
2023/11/30 01:22:24;;;;;;;15.43;3.13;;;;;;;7.48;100.00;97935.13;4992754;28;20066;-92
2023/11/30 01:24:50;;;;;;;10.45;3.22;;;;;;;7.68;100.00;97995.47;4993860;28;20053;-91
2023/11/30 01:27:16;;;;;;;6.85;2.63;;;;;;;8.35;100.00;98107.38;4998318;28;20053;-91
2023/11/30 01:29:42;;;;;;;8.65;2.50;;;;;;;7.66;100.00;97999.91;5013952;28;20037;-93
2023/11/30 01:32:08;;;;;;;9.18;3.10;;;;;;;7.59;100.00;97989.50;5011713;28;20048;-93
2023/11/30 01:34:34;;;;;;;12.00;2.90;;;;;;;7.61;100.00;97990.31;5013647;28;20037;-93
2023/11/30 01:37:01;;;;;;;7.20;2.90;;;;;;;7.87;100.00;98007.25;5028479;28;20038;-91
2023/11/30 01:39:27;;;;;;;6.45;2.85;;;;;;;8.05;100.00;98048.22;5031518;28;20033;-92
2023/11/30 01:41:53;;;;;;;14.90;3.42;;;;;;;7.53;100.00;97951.75;5018994;28;20051;-93
2023/11/30 01:44:19;;;;;;;13.50;2.70;;;;;;;8.36;100.00;98087.91;5016159;28;20060;-94
2023/11/30 01:46:45;;;;;;;8.27;3.00;;;;;;;8.33;100.00;98085.38;5017453;28;20049;-91
2023/11/30 01:49:11;;;;;;;10.73;2.40;;;;;;;7.33;100.00;97895.00;5031285;28;20061;-91
2023/11/30 01:51:37;;;;;;;10.38;2.92;;;;;;;7.75;100.00;97952.03;5016277;28;20369;-92
2023/11/30 01:54:07;;;;;;;4.85;2.35;;;;;;;8.42;100.00;98042.75;5018607;28;20041;-92
2023/11/30 01:56:35;;;;;;;7.75;2.63;;;;;;;8.30;100.00;97994.53;5017425;28;20547;-93
2023/11/30 01:59:02;;;;;;;11.75;3.30;;;;;;;8.51;100.00;98006.28;5018157;28;20406;-94
2023/11/30 02:01:28;;;;;;;11.25;3.17;;;;;;;8.58;100.00;98005.16;5016983;28;20060;-92
2023/11/30 02:03:54;;;;;;;7.88;2.63;;;;;;;8.84;100.00;98037.00;5018485;28;20052;-92
2023/11/30 02:06:20;;;;;;;7.47;2.90;;;;;;;7.72;100.00;97848.88;5017994;28;20462;-92
2023/11/30 02:08:46;;;;;;;6.25;2.72;;;;;;;7.96;100.00;97874.63;5017740;28;20053;-91
2023/11/30 02:11:13;;;;;;;11.43;2.78;;;;;;;8.57;100.00;97984.91;5033599;28;20044;-93
2023/11/30 02:13:39;;;;;;;9.82;2.88;;;;;;;8.48;100.00;97969.25;5052006;28;20030;-92
2023/11/30 02:16:06;;;;;;;10.77;3.33;;;;;;;7.95;100.00;97904.63;5015851;28;20048;-92
2023/11/30 02:18:32;;;;;;;5.25;2.58;;;;;;;7.59;100.00;97859.00;5018204;28;20060;-93
2023/11/30 02:20:58;;;;;;;5.22;2.60;;;;;;;7.29;100.00;97814.00;5020706;28;20037;-95
2023/11/30 02:23:25;;;;;;;10.70;3.28;;;;;;;7.87;100.00;97914.63;5018458;28;20050;-92
2023/11/30 02:25:51;;;;;;;7.15;3.28;;;;;;;7.98;100.00;97928.38;5018331;28;20037;-92
2023/11/30 02:28:17;;;;;;;9.75;3.10;;;;;;;7.68;100.00;97900.19;5017565;28;20056;-93
2023/11/30 02:30:46;;;;;;;7.30;2.53;;;;;;;7.68;100.00;97877.22;5013979;28;20053;-93
2023/11/30 02:33:12;;;;;;;8.70;3.60;;;;;;;7.57;100.00;97848.44;5018414;28;20033;-94
2023/11/30 02:35:38;;;;;;;10.48;3.30;;;;;;;8.19;100.00;97950.69;5017297;28;20137;-94
2023/11/30 02:38:04;;;;;;;9.52;2.83;;;;;;;7.63;100.00;97850.03;5017591;28;20037;-91
2023/11/30 02:40:31;;;;;;;8.45;2.83;;;;;;;8.42;100.00;97936.75;5019008;28;20750;-90
2023/11/30 02:42:57;;;;;;;6.07;2.10;;;;;;;9.10;100.00;98019.38;5017592;28;20112;-93
2023/11/30 02:45:23;;;;;;;7.25;2.22;;;;;;;8.82;100.00;97958.44;5049063;28;20045;-91
2023/11/30 02:47:48;;;;;;;6.72;2.42;;;;;;;8.50;100.00;97927.69;5034616;28;20053;-93
2023/11/30 02:50:14;;;;;;;4.60;1.85;;;;;;;9.01;100.00;97972.81;5017426;28;20376;-94
2023/11/30 02:52:41;;;;;;;6.80;2.30;;;;;;;8.28;100.00;97850.66;5018647;28;20403;-91
2023/11/30 02:55:07;;;;;;;6.10;2.58;;;;;;;8.91;100.00;97958.13;5018462;28;20088;-93
2023/11/30 02:57:35;;;;;;;6.07;2.38;;;;;;;8.38;100.00;97820.31;5017228;28;20041;-91
2023/11/30 03:00:02;;;;;;;4.78;2.25;;;;;;;8.76;100.00;97880.00;5017239;28;20064;-91
2023/11/30 03:02:28;;;;;;;8.45;1.95;;;;;;;8.58;100.00;97838.22;5021203;28;20041;-92
2023/11/30 03:04:54;;;;;;;12.13;2.65;;;;;;;9.34;100.00;97974.38;5034159;28;20385;-92
2023/11/30 03:07:20;;;;;;;14.40;2.28;;;;;;;9.08;100.00;97925.75;5035475;28;20061;-91
2023/11/30 03:09:46;;;;;;;8.43;2.72;;;;;;;9.70;100.00;98017.34;5017090;28;20037;-94
2023/11/30 03:12:14;;;;;;;8.57;2.50;;;;;;;9.41;100.00;97942.28;5034563;28;20068;-93
2023/11/30 03:14:45;;;;;;;8.90;1.90;;;;;;;8.90;100.00;97823.00;5015465;28;20045;-93
2023/11/30 03:17:11;;;;;;;8.30;2.08;;;;;;;9.25;100.00;97869.44;5014690;28;20044;-91
2023/11/30 03:19:37;;;;;;;10.15;1.80;;;;;;;9.53;100.00;97906.47;5033464;28;20037;-92
2023/11/30 03:22:03;;;;;;;8.80;1.67;;;;;;;9.32;100.00;97848.88;5017282;28;20037;-90
2023/11/30 03:24:29;;;;;;;13.10;1.67;;;;;;;9.89;100.00;97924.63;5016497;28;20057;-93
2023/11/30 03:26:55;;;;;;;8.15;1.73;;;;;;;10.08;100.00;97959.28;5016199;28;20045;-92
2023/11/30 03:29:21;;;;;;;3.83;1.50;;;;;;;9.69;100.00;97882.00;5016250;28;20033;-93
2023/11/30 03:31:48;;;;;;;5.68;2.92;;;;;;;9.61;100.00;97869.03;5014693;28;20061;-94
2023/11/30 03:34:14;;;;;;;7.82;2.15;;;;;;;9.92;100.00;97921.81;5032526;28;20046;-93
2023/11/30 03:36:40;;;;;;;4.78;2.05;;;;;;;9.66;100.00;97851.13;5017073;28;20106;-93
2023/11/30 03:39:06;;;;;;;5.75;1.88;;;;;;;9.75;100.00;97871.16;5017477;28;20037;-92
2023/11/30 03:41:32;;;;;;;3.90;1.88;;;;;;;9.38;100.00;97815.00;5016160;28;20037;-94
2023/11/30 03:43:58;;;;;;;9.57;2.15;;;;;;;10.28;100.00;97939.94;5017744;28;20085;-92
2023/11/30 03:46:24;;;;;;;4.28;1.70;;;;;;;9.73;100.00;97851.75;5013725;28;20041;-94
2023/11/30 03:48:52;;;;;;;7.82;1.73;;;;;;;10.03;100.00;97894.84;5016349;28;20053;-93
2023/11/30 03:51:18;;;;;;;4.38;2.08;;;;;;;9.96;100.00;97888.91;5016868;28;20045;-91
2023/11/30 03:53:43;;;;;;;4.00;1.80;;;;;;;10.24;100.00;97936.53;5015456;28;20041;-92
2023/11/30 03:56:10;;;;;;;11.48;2.15;;;;;;;9.56;100.00;97829.38;5017003;28;20491;-93
2023/11/30 03:58:35;;;;;;;9.73;1.88;;;;;;;9.13;100.00;97762.03;5016219;28;20045;-93
2023/11/30 04:01:01;;;;;;;9.32;2.08;;;;;;;9.88;100.00;97867.09;5020360;28;20039;-94
2023/11/30 04:03:27;;;;;;;6.05;1.85;;;;;;;9.99;100.00;97902.06;5016354;28;20096;-95
2023/11/30 04:05:54;;;;;;;9.70;1.73;;;;;;;9.58;100.00;97834.63;5016482;28;20065;-93
2023/11/30 04:08:20;;;;;;;5.35;1.83;;;;;;;9.98;100.00;97876.44;5015997;28;20053;-93
2023/11/30 04:10:46;;;;;;;4.50;1.95;;;;;;;9.33;100.00;97782.50;5015445;28;20033;-92
2023/11/30 04:13:12;;;;;;;8.27;2.13;;;;;;;9.71;100.00;97824.41;5015571;28;20037;-93
2023/11/30 04:15:38;;;;;;;6.30;1.80;;;;;;;9.52;100.00;97800.34;5012859;28;20447;-93
2023/11/30 04:18:04;;;;;;;8.40;1.95;;;;;;;9.16;100.00;97764.56;5014938;28;20565;-92
2023/11/30 04:20:30;;;;;;;6.05;1.75;;;;;;;9.53;100.00;97779.06;5019715;28;20042;-94
2023/11/30 04:22:57;;;;;;;4.25;1.80;;;;;;;9.74;100.00;97805.72;5014787;28;20045;-92
2023/11/30 04:25:23;;;;;;;4.43;2.05;;;;;;;9.88;100.00;97825.47;5012888;28;20045;-94
2023/11/30 04:27:49;;;;;;;9.20;2.22;;;;;;;10.17;100.00;97868.63;5008295;28;20686;-91
2023/11/30 04:30:15;;;;;;;7.13;2.13;;;;;;;9.89;100.00;97829.00;5003277;28;20046;-93
2023/11/30 04:32:41;;;;;;;4.60;1.98;;;;;;;10.21;100.00;97866.69;5000357;28;20033;-92
2023/11/30 04:35:07;;;;;;;5.20;1.75;;;;;;;10.44;100.00;97900.34;4999416;28;20077;-90
2023/11/30 04:37:33;;;;;;;7.68;1.73;;;;;;;10.15;100.00;97829.75;5016483;28;20046;-92
2023/11/30 04:40:01;;;;;;;5.50;1.48;;;;;;;10.48;100.00;97876.25;4999910;28;20125;-92
2023/11/30 04:42:26;;;;;;;5.85;1.58;;;;;;;10.27;100.00;97859.34;5000544;28;20080;-92
2023/11/30 04:44:52;;;;;;;6.10;1.80;;;;;;;10.45;100.00;97857.78;5001822;28;20503;-93
2023/11/30 04:47:19;;;;;;;4.65;1.75;;;;;;;9.68;100.00;97721.00;5000697;28;20038;-94
2023/11/30 04:49:45;;;;;;;6.38;1.63;;;;;;;9.90;100.00;97743.09;5000999;28;20034;-92
2023/11/30 04:52:11;;;;;;;5.80;1.75;;;;;;;10.73;100.00;97877.88;4999443;28;20124;-93
2023/11/30 04:54:37;;;;;;;7.22;1.65;;;;;;;10.59;100.00;97843.91;5000094;28;20141;-93
2023/11/30 04:57:04;;;;;;;5.30;1.70;;;;;;;10.70;100.00;97835.47;5005497;28;20049;-92
2023/11/30 04:59:30;;;;;;;5.22;1.67;;;;;;;10.72;100.00;97844.25;5001379;28;20096;-91
2023/11/30 05:01:56;;;;;;;8.90;1.80;;;;;;;10.27;100.00;97763.69;5008462;28;20415;-95
2023/11/30 05:04:22;;;;;;;8.45;1.40;;;;;;;10.65;100.00;97842.78;5007737;28;20061;-92
2023/11/30 05:06:47;;;;;;;5.55;2.10;;;;;;;10.49;100.00;97805.34;5003171;28;20061;-93
2023/11/30 05:09:13;;;;;;;12.50;2.03;;;;;;;10.58;100.00;97839.53;5002911;28;20042;-92
2023/11/30 05:11:39;;;;;;;8.02;1.70;;;;;;;10.09;100.00;97740.56;5001631;28;20045;-90
2023/11/30 05:14:07;;;;;;;5.72;1.63;;;;;;;10.59;100.00;97822.63;5021759;28;20401;-94
2023/11/30 05:16:33;;;;;;;4.78;1.55;;;;;;;10.58;100.00;97820.03;4996237;28;20518;-93
2023/11/30 05:18:58;;;;;;;5.65;1.63;;;;;;;10.52;100.00;97834.47;5001241;28;20038;-93
2023/11/30 05:21:24;;;;;;;3.70;1.40;;;;;;;9.84;100.00;97724.75;5005715;28;20105;-93
2023/11/30 05:23:51;;;;;;;4.38;1.45;;;;;;;10.35;100.00;97797.94;5003678;28;20395;-94
2023/11/30 05:26:17;;;;;;;6.63;1.67;;;;;;;10.32;100.00;97807.84;5006037;28;20045;-94
2023/11/30 05:28:43;;;;;;;3.97;1.17;;;;;;;9.89;100.00;97744.03;5016093;28;20128;-93
2023/11/30 05:31:10;;;;;;;4.47;1.27;;;;;;;9.98;100.00;97718.91;5014697;28;20120;-92
2023/11/30 05:33:36;;;;;;;4.50;1.30;;;;;;;10.57;100.00;97802.38;5018479;28;20045;-91
2023/11/30 05:36:02;;;;;;;7.60;1.67;;;;;;;10.52;100.00;97794.59;5022638;28;20111;-93
2023/11/30 05:38:28;;;;;;;4.85;1.38;;;;;;;10.24;100.00;97716.00;5017947;28;20045;-92
2023/11/30 05:40:54;;;;;;;12.68;1.88;;;;;;;10.97;100.00;97806.81;5019159;28;20060;-94
2023/11/30 05:43:21;;;;;;;6.05;1.70;;;;;;;10.48;100.00;97743.34;5019531;28;20053;-91
2023/11/30 05:45:46;;;;;;;5.40;1.75;;;;;;;10.55;100.00;97743.09;5018364;28;20065;-93
2023/11/30 05:48:14;;;;;;;5.65;1.63;;;;;;;11.07;100.00;97829.41;5018550;28;20061;-94
2023/11/30 05:50:40;;;;;;;2.50;1.10;;;;;;;10.41;100.00;97712.66;5018421;28;20088;-91
2023/11/30 05:53:05;;;;;;;8.63;1.27;;;;;;;10.97;100.00;97827.22;5033765;28;20041;-94
2023/11/30 05:55:32;;;;;;;5.30;1.25;;;;;;;10.14;100.00;97692.53;5017596;28;20041;-91
2023/11/30 05:57:57;;;;;;;2.35;1.20;;;;;;;10.87;100.00;97809.00;5017428;28;20069;-90
2023/11/30 06:00:26;;;;;;;4.38;1.13;;;;;;;10.42;100.00;97740.09;5030509;28;20519;-93
2023/11/30 06:02:53;;;;;;;6.43;2.05;;;;;;;10.11;100.00;97687.38;5021057;28;20053;-92
2023/11/30 06:05:20;;;;;;;6.07;1.33;;;;;;;10.83;100.00;97799.44;5020577;28;20040;-93
2023/11/30 06:07:46;;;;;;;5.93;1.30;;;;;;;10.94;100.00;97804.28;5019940;28;20080;-92
2023/11/30 06:10:13;;;;;;;5.70;1.27;;;;;;;11.12;100.00;97855.81;5019910;28;20487;-93
2023/11/30 06:12:39;;;;;;;7.07;1.65;;;;;;;10.83;100.00;97836.66;5020967;28;20400;-93
2023/11/30 06:15:06;;;;;;;7.97;1.70;;;;;;;10.93;100.00;97838.91;5015170;28;20128;-91
2023/11/30 06:17:39;;;;;;;4.20;1.30;;;;;;;10.55;100.00;97757.22;5017498;28;20507;-91
2023/11/30 06:20:10;;;;;;;5.40;1.40;;;;;;;10.50;100.00;97742.44;5035717;28;20045;-92
2023/11/30 06:22:37;;;;;;;6.72;1.60;;;;;;;10.79;100.00;97808.47;5019702;28;20069;-90
2023/11/30 06:25:03;;;;;;;4.32;1.10;;;;;;;10.84;100.00;97797.63;5017428;28;20052;-93
2023/11/30 06:27:29;;;;;;;4.75;1.23;;;;;;;10.72;100.00;97811.47;5019753;28;20524;-93
2023/11/30 06:29:55;;;;;;;6.22;2.30;;;;;;;10.58;100.00;97801.41;5021314;28;20030;-91
2023/11/30 06:32:21;;;;;;;4.32;1.25;;;;;;;11.14;100.00;97853.09;5018153;28;20056;-93
2023/11/30 06:34:47;;;;;;;3.70;1.10;;;;;;;10.70;100.00;97758.38;5037284;28;20088;-93
2023/11/30 06:37:13;;;;;;;6.25;1.75;;;;;;;10.80;100.00;97767.66;5020488;28;20053;-94
2023/11/30 06:39:42;;;;;;;4.15;1.23;;;;;;;10.69;100.00;97756.63;5019407;28;20043;-94
2023/11/30 06:42:08;;;;;;;5.05;1.40;;;;;;;11.01;100.00;97802.22;5020109;28;20136;-95
2023/11/30 06:44:34;;;;;;;5.60;1.27;;;;;;;10.67;100.00;97734.59;5023110;28;20072;-94
2023/11/30 06:47:00;;;;;;;7.45;1.67;;;;;;;10.75;100.00;97759.00;5018134;28;20460;-93
2023/11/30 06:49:25;;;;;;;6.50;1.48;;;;;;;11.26;100.00;97840.13;5019318;28;20132;-93
2023/11/30 06:51:52;;;;;;;6.25;1.20;;;;;;;10.63;100.00;97727.66;5015332;28;20041;-94
2023/11/30 06:54:18;;;;;;;7.50;1.95;;;;;;;10.52;100.00;97733.44;5019650;28;20041;-94
2023/11/30 06:56:45;;;;;;;3.03;1.70;;;;;;;10.58;100.00;97695.97;5019167;28;20041;-93
2023/11/30 06:59:11;;;;;;;3.78;1.50;;;;;;;11.26;100.00;97809.97;5036804;28;20076;-91
2023/11/30 07:01:37;;;;;;;7.57;2.22;;;;;;;10.53;100.00;97719.22;5019822;28;20076;-95
2023/11/30 07:04:03;;;;;;;8.35;1.70;;;;;;;11.23;100.00;97850.91;5019649;28;20052;-92
2023/11/30 07:06:30;;;;;;;5.05;1.30;;;;;;;11.36;100.00;97866.31;5019298;28;20041;-93
2023/11/30 07:08:56;;;;;;;5.45;1.58;;;;;;;11.45;100.00;97865.88;5019736;28;20502;-96
2023/11/30 07:11:21;;;;;;;6.50;1.85;;;;;;;11.53;100.00;97869.06;5023157;28;20097;-94
2023/11/30 07:13:49;;;;;;;3.80;1.27;;;;;;;11.49;100.00;97851.50;5019849;28;20050;-94
2023/11/30 07:16:15;;;;;;;4.32;1.27;;;;;;;11.29;100.00;97809.81;5019340;28;20042;-94
2023/11/30 07:18:41;;;;;;;5.55;1.50;;;;;;;10.80;100.00;97726.91;5020080;28;20037;-94
2023/11/30 07:21:12;;;;;;;4.20;1.17;;;;;;;11.77;100.00;97882.22;5022736;28;20044;-93
2023/11/30 07:23:38;;;;;;;6.57;1.70;;;;;;;11.65;100.00;97868.53;5019148;28;20041;-95
2023/11/30 07:26:10;;;;;;;2.72;1.58;;;;;;;11.85;100.00;97880.06;5019466;28;20037;-93
2023/11/30 07:28:35;;;;;;;4.40;1.50;;;;;;;11.77;100.00;97866.22;5019500;28;20046;-94
2023/11/30 07:31:03;;;;;;;4.85;1.27;;;;;;;11.70;100.00;97842.53;5018552;28;20590;-94
2023/11/30 07:33:29;;;;;;;4.32;1.60;;;;;;;11.07;100.00;97730.13;5019483;28;20095;-93
2023/11/30 07:35:55;;;;;;;4.65;1.48;;;;;;;11.62;100.00;97820.72;5019139;28;20096;-95
2023/11/30 07:38:21;;;;;;;3.63;2.38;;;;;;;11.40;100.00;97774.72;5018394;28;20459;-95
2023/11/30 07:40:47;;;;;;;3.97;1.25;;;;;;;11.35;100.00;97790.91;5018883;28;20030;-93
2023/11/30 07:43:13;;;;;;;4.05;1.55;;;;;;;11.22;100.00;97733.88;5018731;28;20033;-92
2023/11/30 07:45:39;;;;;;;10.63;1.90;;;;;;;11.27;100.00;97730.03;5018800;28;20070;-94
2023/11/30 07:48:06;;;;;;;5.13;1.33;;;;;;;11.49;100.00;97801.81;5018682;28;20495;-96
2023/11/30 07:50:32;;;;;;;4.00;1.38;;;;;;;11.52;100.00;97788.34;5018055;28;20136;-91
2023/11/30 07:52:58;;;;;;;7.05;1.30;;;;;;;11.39;100.00;97770.38;5018970;28;20156;-92
2023/11/30 07:55:24;;;;;;;6.65;1.50;;;;;;;10.96;100.00;97711.97;5020434;28;20033;-95
2023/11/30 07:57:50;;;;;;;3.35;1.50;;;;;;;11.76;100.00;97851.19;5019702;28;20069;-94
2023/11/30 08:00:16;;;;;;;6.30;1.40;;;;;;;11.70;100.00;97831.88;5019186;28;20042;-94
2023/11/30 08:02:45;;;;;;;3.45;1.27;;;;;;;11.07;100.00;97711.50;5019124;28;20068;-94
2023/11/30 08:05:12;;;;;;;5.38;1.55;;;;;;;11.96;100.00;97875.13;5019234;28;20042;-93
2023/11/30 08:07:41;;;;;;;5.13;1.40;;;;;;;10.98;100.00;97712.78;5016932;28;20049;-92
2023/11/30 08:10:07;;;;;;;4.50;1.58;;;;;;;11.69;100.00;97790.22;5018058;28;20050;-93
2023/11/30 08:12:33;;;;;;;4.32;2.00;;;;;;;11.57;100.00;97787.28;5019914;28;20045;-93
2023/11/30 08:15:07;;;;;;;3.53;1.70;;;;;;;11.11;100.00;97675.84;5018955;28;20510;-92
2023/11/30 08:17:33;;;;;;;2.72;1.17;;;;;;;11.37;100.00;97703.03;5020657;28;20487;-92
2023/11/30 08:19:59;;;;;;;3.08;1.40;;;;;;;11.01;100.00;97693.16;5019079;28;20076;-92
2023/11/30 08:22:29;;;;;;;6.57;1.30;;;;;;;12.10;100.00;97848.69;5020399;28;20049;-95
2023/11/30 08:24:55;;;;;;;4.88;1.77;;;;;;;11.95;100.00;97813.91;5019292;28;20056;-94
2023/11/30 08:27:23;;;;;;;6.05;1.23;;;;;;;11.19;100.00;97687.00;5019059;28;20053;-93
2023/11/30 08:29:49;;;;;;;3.85;1.20;;;;;;;12.26;100.00;97864.81;5037255;28;20034;-94
2023/11/30 08:32:17;;;;;;;4.00;1.75;;;;;;;11.76;100.00;97752.66;5014137;28;20049;-91
2023/11/30 08:34:43;;;;;;;2.90;1.23;;;;;;;11.49;100.00;97692.66;5009270;28;20042;-94
2023/11/30 08:37:09;;;;;;;1.90;1.00;;;;;;;11.76;100.00;97710.03;5009381;28;20569;-93
2023/11/30 08:39:42;;;;;;;7.72;2.00;;;;;;;11.38;100.00;97672.78;5012974;28;20042;-92
2023/11/30 08:42:21;;;;;;;6.43;1.88;;;;;;;12.27;100.00;97809.69;5018934;28;20474;-94
2023/11/30 08:44:47;;;;;;;2.80;1.60;;;;;;;12.06;100.00;97743.19;5018600;28;20048;-92
2023/11/30 08:47:13;;;;;;;5.90;1.73;;;;;;;12.07;100.00;97736.03;5035410;28;20083;-93
2023/11/30 08:49:42;;;;;;;5.85;2.85;;;;;;;12.05;100.00;97728.13;5035442;28;20034;-93
2023/11/30 08:52:08;;;;;;;6.70;1.90;;;;;;;11.84;100.00;97675.88;5018675;28;20045;-93
2023/11/30 08:54:38;;;;;;;5.05;1.90;;;;;;;12.66;100.00;97816.63;5019563;28;20462;-93
2023/11/30 08:57:07;;;;;;;6.10;2.05;;;;;;;12.39;100.00;97750.44;5031002;28;20044;-93
2023/11/30 08:59:36;;;;;;;4.63;1.80;;;;;;;12.58;100.00;97784.13;5019881;28;20041;-92
2023/11/30 09:02:05;;;;;;;4.15;1.75;;;;;;;11.97;100.00;97671.72;5022322;28;20140;-93
2023/11/30 09:04:37;;;;;;;4.53;2.10;;;;;;;12.16;100.00;97703.59;5022953;28;20060;-92
2023/11/30 09:07:06;;;;;;;4.47;1.77;;;;;;;12.86;100.00;97799.59;5022498;28;20406;-92
2023/11/30 09:09:39;;;;;;;2.50;1.25;;;;;;;12.11;100.00;97663.00;5023564;28;20040;-93
2023/11/30 09:12:06;;;;;;;2.88;1.95;;;;;;;13.10;100.00;97825.03;5038948;28;20507;-94
2023/11/30 09:14:35;;;;;;;4.45;1.73;;;;;;;13.02;100.00;97784.50;5024136;28;20104;-93
2023/11/30 09:17:00;;;;;;;6.10;2.53;;;;;;;12.37;100.00;97644.81;5017491;28;20038;-93
2023/11/30 09:19:30;;;;;;;4.85;2.78;;;;;;;12.74;100.00;97710.41;5022659;28;20111;-91
2023/11/30 09:21:56;;;;;;;5.28;2.15;;;;;;;12.59;100.00;97690.72;5025664;28;20128;-93
2023/11/30 09:24:21;;;;;;;6.03;1.63;;;;;;;12.40;100.00;97672.16;5022871;28;20083;-91
2023/11/30 09:26:50;;;;;;;3.58;1.55;;;;;;;13.02;100.00;97751.63;5022692;28;20076;-95
2023/11/30 09:29:19;;;;;;;5.13;1.52;;;;;;;12.95;100.00;97732.44;5021506;28;20136;-94
2023/11/30 09:31:46;;;;;;;5.53;1.70;;;;;;;12.40;100.00;97640.16;5020707;28;20137;-92
2023/11/30 09:34:12;;;;;;;5.78;1.88;;;;;;;12.35;100.00;97644.03;5021780;28;20045;-92
2023/11/30 09:36:42;;;;;;;9.90;1.95;;;;;;;13.24;100.00;97768.22;5024632;28;20045;-93
2023/11/30 09:39:08;;;;;;;4.50;1.80;;;;;;;13.24;100.00;97768.22;5023534;28;20065;-94
2023/11/30 09:41:36;;;;;;;3.30;1.35;;;;;;;12.81;100.00;97671.78;5021024;28;20402;-93
2023/11/30 09:44:03;;;;;;;4.70;1.70;;;;;;;13.49;100.00;97772.28;5016986;28;20044;-92
2023/11/30 09:46:32;;;;;;;5.10;1.83;;;;;;;13.22;100.00;97716.72;5022905;28;20124;-92
2023/11/30 09:49:01;;;;;;;3.70;1.60;;;;;;;13.46;100.00;97767.09;5023944;28;20053;-93
2023/11/30 09:51:32;;;;;;;4.47;1.83;;;;;;;13.33;100.00;97721.50;5023868;28;21480;-93
2023/11/30 09:54:01;;;;;;;3.67;1.60;;;;;;;12.76;100.00;97631.16;5016911;28;20041;-94
2023/11/30 09:56:28;;;;;;;4.20;1.58;;;;;;;12.78;100.00;97652.44;5020502;28;20044;-94
2023/11/30 09:58:57;;;;;;;4.47;1.67;;;;;;;13.15;100.00;97696.66;5023451;28;20447;-93
2023/11/30 10:01:25;;;;;;;3.25;1.55;;;;;;;12.82;100.00;97654.84;5022781;28;20042;-94
2023/11/30 10:03:51;;;;;;;4.75;2.10;;;;;;;12.86;100.00;97640.41;5023960;28;20046;-93
2023/11/30 10:06:20;;;;;;;7.25;2.03;;;;;;;12.92;100.00;97652.50;5023307;28;20566;-94
2023/11/30 10:08:46;;;;;;;5.38;2.17;;;;;;;13.40;100.00;97706.00;5023730;28;20045;-93
2023/11/30 10:11:13;;;;;;;3.20;1.65;;;;;;;13.32;100.00;97711.78;5022457;28;20052;-94
2023/11/30 10:13:45;;;;;;;4.53;1.80;;;;;;;12.73;100.00;97623.34;5023182;28;20443;-94
2023/11/30 10:16:11;;;;;;;5.18;2.58;;;;;;;13.31;100.00;97705.56;5038844;28;20046;-93
2023/11/30 10:18:44;;;;;;;5.20;2.10;;;;;;;13.51;100.00;97728.50;5023549;28;20056;-91
2023/11/30 10:21:16;;;;;;;6.72;2.55;;;;;;;12.98;100.00;97633.50;5024323;28;20041;-94
2023/11/30 10:23:45;;;;;;;8.73;2.80;;;;;;;12.88;100.00;97630.50;5022142;28;20037;-92
2023/11/30 10:26:25;;;;;;;6.38;2.33;;;;;;;12.88;100.00;97629.63;5022612;28;20041;-94
2023/11/30 10:28:57;;;;;;;4.57;2.63;;;;;;;13.29;100.00;97679.88;5020990;28;20057;-93
2023/11/30 10:31:23;;;;;;;;;;;;;;;13.59;100.00;97765.47;5021872;28;20060;-92
2023/11/30 10:34:07;;;;;;;6.53;2.88;;;;;;;13.36;100.00;97734.69;5020415;28;19928;-94
2023/11/30 10:36:36;;;;;;;7.80;3.25;;;;;;;12.87;100.00;97646.59;5016346;28;20486;-93
2023/11/30 10:39:16;;;;;;;7.03;3.33;;;;;;;12.63;100.00;97598.94;5017022;28;20559;-94
2023/11/30 10:41:52;;;;;;;4.70;2.85;;;;;;;13.13;100.00;97658.50;5013344;28;20037;-94
2023/11/30 10:44:25;;;;;;;4.57;2.00;;;;;;;12.92;100.00;97620.50;5026890;28;20049;-95
2023/11/30 10:46:58;;;;;;;4.53;2.17;;;;;;;13.55;100.00;97694.44;5021426;28;20049;-92
2023/11/30 10:49:48;;;;;;;7.35;2.65;;;;;;;12.76;100.00;97571.63;5020793;28;20037;-93
2023/11/30 10:52:15;;;;;;;10.63;3.00;;;;;;;12.93;100.00;97580.41;5018937;28;20068;-92
2023/11/30 10:54:54;;;;;;;10.70;6.57;;;;;;;13.14;100.00;97630.84;5018957;28;20096;-93
2023/11/30 10:57:21;;;;;;;6.72;3.35;;;;;;;13.30;100.00;97666.47;5036916;28;20133;-93
2023/11/30 10:59:55;;;;;;;8.35;5.28;;;;;;;13.75;100.00;97686.19;5019135;28;20048;-91
2023/11/30 11:02:47;;;;;;;14.90;10.27;;;;;;;13.79;100.00;97659.28;5019381;28;20558;-91
2023/11/30 11:05:15;;;;;;;10.10;7.13;;;;;;;13.77;100.00;97648.69;5015028;28;20049;-93
2023/11/30 11:07:48;;;;;;;9.45;6.97;;;;;;;13.88;100.00;97658.72;5019051;28;20046;-92
2023/11/30 11:10:28;;;;;;;8.98;5.10;;;;;;;13.62;100.00;97613.03;5019250;28;20084;-94
2023/11/30 11:13:01;;;;;;;10.63;4.50;;;;;;;13.86;100.00;97610.75;5019270;28;20096;-93
2023/11/30 11:15:29;;;;;;;5.50;3.75;;;;;;;13.40;100.00;97543.09;5020397;28;20124;-92
2023/11/30 11:18:02;;;;;;;9.52;6.38;;;;;;;13.48;100.00;97546.19;5019874;28;20151;-96
2023/11/30 11:20:32;;;;;;;6.45;4.40;;;;;;;14.12;100.00;97611.00;5018161;28;20064;-94
2023/11/30 11:23:07;;;;;;;9.32;5.72;;;;;;;14.11;100.00;97618.16;5019265;28;20050;-92
2023/11/30 11:25:36;;;;;;;6.85;4.57;;;;;;;13.90;100.00;97576.66;5024329;28;20065;-93
2023/11/30 11:28:02;;;;;;;8.07;4.22;;;;;;;14.38;100.00;97654.91;5018128;28;20068;-92